Лев Толстой

Карта отелей и гостиниц, располагающихся рядом с аэропортом Лев Толстой :

Лев Толстой Липецкая область 53° 13' 37.8588" N, 39° 26' 5.5212" E
Код аэродрома ИКАО
ZA7E
Код аэродрома RU
ЗА7Е
Координаты
N53.22718° E039.43487°
Превышение над уровнем моря
207
Основная полоса
07/25
Курс магнитный
073/253
Длина основной ВПП
400
Ширина основной ВПП
18
Покрытие основной ВПП
Твёрдое (асфальт)
Освещение ВПП
Нет
Тип: 
Аэродром
Класс аэродрома: 
Принадлежность: 
ГА
Статус: 
Недействующий
Сайт: 
E-mail аэродрома: 
Страна: 
Россия
Регион: 
Липецкая область
Город: 
Дополнительная информация: 
Площадка АХР.

Найти трансфер

С помощью этой формы Вы можете найти трансфер из аэропорта Лев Толстой в город, аэропорт или вокзал:

Карта места

Javascript is required to view this map.

Погода в аэропортах:

Авиационная погода в Воронеже

Регион: 
Погода METAR: 
UUOO 171830Z 07003MPS 9999 -SHRA BKN///CB 10/07 Q1017 R12/290160 NOSIG RMK QFE749
Время наблюдения
2021-09-17T18:30:00Z
Температура C
10.0
Точка росы
7.0
Направление ветра
70
Скорость ветра (узлы)
6
Метео видимость
6.21
Явления погоды
-SHRA
Условия полета
Аэропорт подробнее: 

Авиационная погода в Кневичи

Регион: 
Погода METAR: 
UHWW 171830Z 00000MPS 2100 0700E R25L/1600D PRFG OVC002 07/07 Q1014 R25L/0///70 NOSIG RMK QBB070 MT OBSC QFE759
Время наблюдения
2021-09-17T18:30:00Z
Температура C
7.0
Точка росы
7.0
Направление ветра
0
Скорость ветра (узлы)
0
Метео видимость
1.3
Явления погоды
PRFG
Условия полета
LIFR
Аэропорт подробнее: 

Авиационная погода в Емельяново

Регион: 
Погода METAR: 
UNKL 171830Z 10002MPS 0150 0100S R29/0550U FG SCT001 08/08 Q1005 R29/CLRD65 NOSIG RMK QBB050 QFE729
Время наблюдения
2021-09-17T18:30:00Z
Температура C
8.0
Точка росы
8.0
Направление ветра
100
Скорость ветра (узлы)
4
Метео видимость
0.09
Явления погоды
FG
Условия полета
LIFR
Аэропорт подробнее: 

Авиационная погода в Якутске

Регион: 
Погода METAR: 
UEEE 171830Z 30004MPS 9999 -SHRA SCT009 BKN018CB 07/07 Q0997 R23L/290155 NOSIG RMK QFE739
Время наблюдения
2021-09-17T18:30:00Z
Температура C
7.0
Точка росы
7.0
Направление ветра
300
Скорость ветра (узлы)
8
Метео видимость
6.21
Явления погоды
-SHRA
Условия полета
MVFR
Аэропорт подробнее: